Ouzinkie, Alaska
Current Conditions -  °F | °C
As of 10:53 PM on Thursday 18 Dec 2014 (Local Time) from PADQ Reporting Station
Broken Clouds Broken Clouds  
Wind Chill: 34°   Ceiling: 25000
Heat Index: 41°   Visibility: 10mi
Dew Point: 34°   Wind: 12mph
Humidity: 76%   Direction: 350°N
Pressure: 29.05"   Gusts: 20mph
Location:  57.92°N, 152.5°W
Report Text: PADQ 190753Z 35010G17KT 10SM SCT055 BKN250 05/01 A2905 RMK AO2 RAE49 SLP839 P0000 T00500011
Loading
Personal Weather Stations






























Interactive Weather Map New forecast layout! Learn more

10-Day Weather Forecast

Advertisements
Track Severe Weather on mobile